sensor_id;sensor_type;location;lat;lon;timestamp;pressure;altitude;pressure_sealevel;temperature
58102;BMP280;52034;51.926;6.320;2024-01-16T00:00:54;100625.34;;;1.42
58102;BMP280;52034;51.926;6.320;2024-01-16T00:01:56;100618.06;;;1.37
58102;BMP280;52034;51.926;6.320;2024-01-16T00:02:58;100628.13;;;1.42
58102;BMP280;52034;51.926;6.320;2024-01-16T00:03:59;100626.38;;;1.37
58102;BMP280;52034;51.926;6.320;2024-01-16T00:05:01;100618.38;;;1.41
58102;BMP280;52034;51.926;6.320;2024-01-16T00:06:02;100607.16;;;1.39
58102;BMP280;52034;51.926;6.320;2024-01-16T00:07:04;100624.19;;;1.45
58102;BMP280;52034;51.926;6.320;2024-01-16T00:08:06;100622.75;;;1.44
58102;BMP280;52034;51.926;6.320;2024-01-16T00:09:08;100623.63;;;1.46
58102;BMP280;52034;51.926;6.320;2024-01-16T00:10:11;100627.28;;;1.49
58102;BMP280;52034;51.926;6.320;2024-01-16T00:11:13;100615.19;;;1.44
58102;BMP280;52034;51.926;6.320;2024-01-16T00:12:14;100622.47;;;1.49
58102;BMP280;52034;51.926;6.320;2024-01-16T00:13:16;100622.63;;;1.51
58102;BMP280;52034;51.926;6.320;2024-01-16T00:14:18;100624.50;;;1.49
58102;BMP280;52034;51.926;6.320;2024-01-16T00:15:20;100629.44;;;1.50
58102;BMP280;52034;51.926;6.320;2024-01-16T00:16:21;100627.13;;;1.47
58102;BMP280;52034;51.926;6.320;2024-01-16T00:17:23;100625.09;;;1.47
58102;BMP280;52034;51.926;6.320;2024-01-16T00:18:25;100628.16;;;1.51
58102;BMP280;52034;51.926;6.320;2024-01-16T00:19:27;100629.44;;;1.50
58102;BMP280;52034;51.926;6.320;2024-01-16T00:20:28;100625.81;;;1.48
58102;BMP280;52034;51.926;6.320;2024-01-16T00:21:30;100622.75;;;1.44
58102;BMP280;52034;51.926;6.320;2024-01-16T00:22:32;100631.19;;;1.46
58102;BMP280;52034;51.926;6.320;2024-01-16T00:23:33;100629.72;;;1.45
58102;BMP280;52034;51.926;6.320;2024-01-16T00:24:35;100628.13;;;1.42
58102;BMP280;52034;51.926;6.320;2024-01-16T00:25:36;100629.72;;;1.45
58102;BMP280;52034;51.926;6.320;2024-01-16T00:26:38;100628.44;;;1.46
58102;BMP280;52034;51.926;6.320;2024-01-16T00:27:40;100634.69;;;1.46
58102;BMP280;52034;51.926;6.320;2024-01-16T00:28:42;100621.28;;;1.43
58102;BMP280;52034;51.926;6.320;2024-01-16T00:29:44;100611.81;;;1.36
58102;BMP280;52034;51.926;6.320;2024-01-16T00:30:45;100609.63;;;1.35
58102;BMP280;52034;51.926;6.320;2024-01-16T00:31:47;100604.97;;;1.28
58102;BMP280;52034;51.926;6.320;2024-01-16T00:32:49;100626.22;;;1.35
58102;BMP280;52034;51.926;6.320;2024-01-16T00:33:50;100616.63;;;1.36
58102;BMP280;52034;51.926;6.320;2024-01-16T00:34:52;100610.34;;;1.26
58102;BMP280;52034;51.926;6.320;2024-01-16T00:35:54;100623.44;;;1.35
58102;BMP280;52034;51.926;6.320;2024-01-16T00:36:56;100620.56;;;1.33
58102;BMP280;52034;51.926;6.320;2024-01-16T00:37:57;100621.88;;;1.32
58102;BMP280;52034;51.926;6.320;2024-01-16T00:38:59;100618.50;;;1.33
58102;BMP280;52034;51.926;6.320;2024-01-16T00:40:01;100621.88;;;1.32
58102;BMP280;52034;51.926;6.320;2024-01-16T00:41:02;100614.16;;;1.30
58102;BMP280;52034;51.926;6.320;2024-01-16T00:42:04;100623.44;;;1.35
58102;BMP280;52034;51.926;6.320;2024-01-16T00:43:07;100617.34;;;1.36
58102;BMP280;52034;51.926;6.320;2024-01-16T00:44:08;100613.69;;;1.34
58102;BMP280;52034;51.926;6.320;2024-01-16T00:45:12;100616.91;;;1.30
58102;BMP280;52034;51.926;6.320;2024-01-16T00:46:13;100617.78;;;1.33
58102;BMP280;52034;51.926;6.320;2024-01-16T00:47:15;100617.34;;;1.27
58102;BMP280;52034;51.926;6.320;2024-01-16T00:48:16;100622.44;;;1.30
58102;BMP280;52034;51.926;6.320;2024-01-16T00:49:20;100620.41;;;1.31
58102;BMP280;52034;51.926;6.320;2024-01-16T00:50:22;100623.91;;;1.31
58102;BMP280;52034;51.926;6.320;2024-01-16T00:51:26;100622.31;;;1.28
58102;BMP280;52034;51.926;6.320;2024-01-16T00:52:28;100637.84;;;1.33
58102;BMP280;52034;51.926;6.320;2024-01-16T00:53:29;100640.63;;;1.33
58102;BMP280;52034;51.926;6.320;2024-01-16T00:54:31;100643.13;;;1.29
58102;BMP280;52034;51.926;6.320;2024-01-16T00:55:32;100651.81;;;1.26
58102;BMP280;52034;51.926;6.320;2024-01-16T00:56:35;100637.28;;;1.25
58102;BMP280;52034;51.926;6.320;2024-01-16T00:57:37;100658.38;;;1.30
58102;BMP280;52034;51.926;6.320;2024-01-16T00:58:39;100643.84;;;1.30
58102;BMP280;52034;51.926;6.320;2024-01-16T00:59:40;100639.19;;;1.23
58102;BMP280;52034;51.926;6.320;2024-01-16T01:00:42;100656.06;;;1.27
58102;BMP280;52034;51.926;6.320;2024-01-16T01:01:44;100659.25;;;1.23
58102;BMP280;52034;51.926;6.320;2024-01-16T01:02:45;100658.84;;;1.27
58102;BMP280;52034;51.926;6.320;2024-01-16T01:03:47;100666.69;;;1.30
58102;BMP280;52034;51.926;6.320;2024-01-16T01:04:48;100663.91;;;1.30
58102;BMP280;52034;51.926;6.320;2024-01-16T01:05:50;100662.75;;;1.24
58102;BMP280;52034;51.926;6.320;2024-01-16T01:06:52;100670.03;;;1.29
58102;BMP280;52034;51.926;6.320;2024-01-16T01:07:55;100662.19;;;1.25
58102;BMP280;52034;51.926;6.320;2024-01-16T01:08:56;100667.84;;;1.27
58102;BMP280;52034;51.926;6.320;2024-01-16T01:09:58;100679.06;;;1.39
58102;BMP280;52034;51.926;6.320;2024-01-16T01:11:00;100673.69;;;1.41
58102;BMP280;52034;51.926;6.320;2024-01-16T01:12:02;100673.22;;;1.35
58102;BMP280;52034;51.926;6.320;2024-01-16T01:13:03;100677.19;;;1.41
58102;BMP280;52034;51.926;6.320;2024-01-16T01:14:05;100682.44;;;1.47
58102;BMP280;52034;51.926;6.320;2024-01-16T01:15:07;100681.69;;;1.46
58102;BMP280;52034;51.926;6.320;2024-01-16T01:16:09;100678.06;;;1.53
58102;BMP280;52034;51.926;6.320;2024-01-16T01:17:11;100684.06;;;1.50
58102;BMP280;52034;51.926;6.320;2024-01-16T01:18:12;100683.19;;;1.47
58102;BMP280;52034;51.926;6.320;2024-01-16T01:19:14;100690.28;;;1.50
58102;BMP280;52034;51.926;6.320;2024-01-16T01:20:17;100691.03;;;1.51
58102;BMP280;52034;51.926;6.320;2024-01-16T01:21:19;100695.25;;;1.52
58102;BMP280;52034;51.926;6.320;2024-01-16T01:22:21;100692.47;;;1.52
58102;BMP280;52034;51.926;6.320;2024-01-16T01:23:23;100685.38;;;1.49
58102;BMP280;52034;51.926;6.320;2024-01-16T01:24:24;100691.03;;;1.51
58102;BMP280;52034;51.926;6.320;2024-01-16T01:25:26;100688.44;;;1.53
58102;BMP280;52034;51.926;6.320;2024-01-16T01:26:27;100695.56;;;1.56
58102;BMP280;52034;51.926;6.320;2024-01-16T01:27:29;100683.31;;;1.49
58102;BMP280;52034;51.926;6.320;2024-01-16T01:28:31;100692.66;;;1.54
58102;BMP280;52034;51.926;6.320;2024-01-16T01:29:32;100688.72;;;1.57
58102;BMP280;52034;51.926;6.320;2024-01-16T01:30:34;100690.03;;;1.56
58102;BMP280;52034;51.926;6.320;2024-01-16T01:31:36;100695.56;;;1.56
58102;BMP280;52034;51.926;6.320;2024-01-16T01:32:37;100699.94;;;1.59
58102;BMP280;52034;51.926;6.320;2024-01-16T01:33:39;100700.09;;;1.61
58102;BMP280;52034;51.926;6.320;2024-01-16T01:34:42;100685.38;;;1.58
58102;BMP280;52034;51.926;6.320;2024-01-16T01:35:43;100697.47;;;1.63
58102;BMP280;52034;51.926;6.320;2024-01-16T01:36:45;100694.72;;;1.63
58102;BMP280;52034;51.926;6.320;2024-01-16T01:37:47;100691.66;;;1.68
58102;BMP280;52034;51.926;6.320;2024-01-16T01:38:48;100701.13;;;1.65
58102;BMP280;52034;51.926;6.320;2024-01-16T01:39:50;100697.19;;;1.59
58102;BMP280;52034;51.926;6.320;2024-01-16T01:40:52;100702.28;;;1.62
58102;BMP280;52034;51.926;6.320;2024-01-16T01:41:54;100693.84;;;1.60
58102;BMP280;52034;51.926;6.320;2024-01-16T01:42:56;100691.91;;;1.53
58102;BMP280;52034;51.926;6.320;2024-01-16T01:43:57;100694.25;;;1.57
58102;BMP280;52034;51.926;6.320;2024-01-16T01:44:59;100696.28;;;1.56
58102;BMP280;52034;51.926;6.320;2024-01-16T01:46:15;100688.72;;;1.57
58102;BMP280;52034;51.926;6.320;2024-01-16T01:47:17;100687.22;;;1.46
58102;BMP280;52034;51.926;6.320;2024-01-16T01:48:19;100687.69;;;1.52
58102;BMP280;52034;51.926;6.320;2024-01-16T01:49:21;100685.09;;;1.54
58102;BMP280;52034;51.926;6.320;2024-01-16T01:50:24;100686.94;;;1.42
58102;BMP280;52034;51.926;6.320;2024-01-16T01:51:26;100679.09;;;1.48
58102;BMP280;52034;51.926;6.320;2024-01-16T01:52:27;100682.28;;;1.45
58102;BMP280;52034;51.926;6.320;2024-01-16T01:53:30;100681.41;;;1.42
58102;BMP280;52034;51.926;6.320;2024-01-16T01:54:35;100681.56;;;1.44
58102;BMP280;52034;51.926;6.320;2024-01-16T01:55:37;100680.09;;;1.43
58102;BMP280;52034;51.926;6.320;2024-01-16T01:56:39;100684.00;;;1.40
58102;BMP280;52034;51.926;6.320;2024-01-16T01:57:41;100670.19;;;1.31
58102;BMP280;52034;51.926;6.320;2024-01-16T01:58:47;100675.41;;;1.36
58102;BMP280;52034;51.926;6.320;2024-01-16T01:59:49;100678.91;;;1.37
58102;BMP280;52034;51.926;6.320;2024-01-16T02:00:52;100678.34;;;1.38
58102;BMP280;52034;51.926;6.320;2024-01-16T02:01:53;100673.09;;;1.33
58102;BMP280;52034;51.926;6.320;2024-01-16T02:02:55;100672.97;;;1.31
58102;BMP280;52034;51.926;6.320;2024-01-16T02:03:57;100671.50;;;1.30
58102;BMP280;52034;51.926;6.320;2024-01-16T02:04:59;100669.16;;;1.26
58102;BMP280;52034;51.926;6.320;2024-01-16T02:06:00;100668.56;;;1.28
58102;BMP280;52034;51.926;6.320;2024-01-16T02:07:02;100673.81;;;1.24
58102;BMP280;52034;51.926;6.320;2024-01-16T02:08:05;100690.69;;;1.28
58102;BMP280;52034;51.926;6.320;2024-01-16T02:09:07;100676.28;;;1.29
58102;BMP280;52034;51.926;6.320;2024-01-16T02:10:09;100678.19;;;1.27
58102;BMP280;52034;51.926;6.320;2024-01-16T02:11:11;100677.75;;;1.30
58102;BMP280;52034;51.926;6.320;2024-01-16T02:12:13;100680.50;;;1.30
58102;BMP280;52034;51.926;6.320;2024-01-16T02:13:19;100686.19;;;1.32
58102;BMP280;52034;51.926;6.320;2024-01-16T02:14:24;100673.38;;;1.27
58102;BMP280;52034;51.926;6.320;2024-01-16T02:15:26;100688.09;;;1.30
58102;BMP280;52034;51.926;6.320;2024-01-16T02:16:35;100688.09;;;1.30
58102;BMP280;52034;51.926;6.320;2024-01-16T02:17:38;100669.84;;;1.17
58102;BMP280;52034;51.926;6.320;2024-01-16T02:18:40;100684.28;;;1.25
58102;BMP280;52034;51.926;6.320;2024-01-16T02:19:41;100687.78;;;1.26
58102;BMP280;52034;51.926;6.320;2024-01-16T02:20:44;100681.22;;;1.21
58102;BMP280;52034;51.926;6.320;2024-01-16T02:21:49;100689.81;;;1.25
58102;BMP280;52034;51.926;6.320;2024-01-16T02:22:53;100684.13;;;1.23
58102;BMP280;52034;51.926;6.320;2024-01-16T02:23:56;100686.03;;;1.21
58102;BMP280;52034;51.926;6.320;2024-01-16T02:24:58;100689.38;;;1.19
58102;BMP280;52034;51.926;6.320;2024-01-16T02:26:00;100681.47;;;1.16
58102;BMP280;52034;51.926;6.320;2024-01-16T02:27:02;100675.81;;;1.14
58102;BMP280;52034;51.926;6.320;2024-01-16T02:28:03;100677.53;;;1.09
58102;BMP280;52034;51.926;6.320;2024-01-16T02:29:05;100677.06;;;1.03
58102;BMP280;52034;51.926;6.320;2024-01-16T02:30:07;100676.66;;;1.07
58102;BMP280;52034;51.926;6.320;2024-01-16T02:31:09;100681.91;;;1.12
58102;BMP280;52034;51.926;6.320;2024-01-16T02:32:12;100684.81;;;1.14
58102;BMP280;52034;51.926;6.320;2024-01-16T02:33:14;100679.72;;;1.11
58102;BMP280;52034;51.926;6.320;2024-01-16T02:34:16;100681.34;;;1.14
58102;BMP280;52034;51.926;6.320;2024-01-16T02:35:18;100681.34;;;1.14
58102;BMP280;52034;51.926;6.320;2024-01-16T02:36:20;100694.16;;;1.19
58102;BMP280;52034;51.926;6.320;2024-01-16T02:37:21;100685.72;;;1.17
58102;BMP280;52034;51.926;6.320;2024-01-16T02:38:23;100683.84;;;1.19
58102;BMP280;52034;51.926;6.320;2024-01-16T02:39:27;100690.53;;;1.26
58102;BMP280;52034;51.926;6.320;2024-01-16T02:40:28;100689.25;;;1.27
58102;BMP280;52034;51.926;6.320;2024-01-16T02:41:30;100693.31;;;1.26
58102;BMP280;52034;51.926;6.320;2024-01-16T02:42:32;100690.97;;;1.22
58102;BMP280;52034;51.926;6.320;2024-01-16T02:43:34;100687.19;;;1.27
58102;BMP280;52034;51.926;6.320;2024-01-16T02:44:35;100697.69;;;1.29
58102;BMP280;52034;51.926;6.320;2024-01-16T02:45:37;100696.22;;;1.28
58102;BMP280;52034;51.926;6.320;2024-01-16T02:46:39;100704.69;;;1.30
58102;BMP280;52034;51.926;6.320;2024-01-16T02:47:41;100691.13;;;1.24
58102;BMP280;52034;51.926;6.320;2024-01-16T02:48:43;100696.22;;;1.28
58102;BMP280;52034;51.926;6.320;2024-01-16T02:49:45;100685.00;;;1.26
58102;BMP280;52034;51.926;6.320;2024-01-16T02:50:46;100688.81;;;1.30
58102;BMP280;52034;51.926;6.320;2024-01-16T02:51:48;100697.25;;;1.32
58102;BMP280;52034;51.926;6.320;2024-01-16T02:52:50;100699.03;;;1.37
58102;BMP280;52034;51.926;6.320;2024-01-16T02:53:52;100696.38;;;1.39
58102;BMP280;52034;51.926;6.320;2024-01-16T02:54:53;100696.56;;;1.41
58102;BMP280;52034;51.926;6.320;2024-01-16T02:55:55;100684.16;;;1.33
58102;BMP280;52034;51.926;6.320;2024-01-16T02:56:59;100700.59;;;1.40
58102;BMP280;52034;51.926;6.320;2024-01-16T02:58:01;100703.53;;;1.42
58102;BMP280;52034;51.926;6.320;2024-01-16T02:59:04;100707.03;;;1.43
58102;BMP280;52034;51.926;6.320;2024-01-16T03:00:06;100708.50;;;1.44
58102;BMP280;52034;51.926;6.320;2024-01-16T03:01:09;100707.16;;;1.45
58102;BMP280;52034;51.926;6.320;2024-01-16T03:02:11;100700.03;;;1.42
58102;BMP280;52034;51.926;6.320;2024-01-16T03:03:13;100693.16;;;1.33
58102;BMP280;52034;51.926;6.320;2024-01-16T03:04:16;100694.94;;;1.38
58102;BMP280;52034;51.926;6.320;2024-01-16T03:05:18;100697.84;;;1.40
58102;BMP280;52034;51.926;6.320;2024-01-16T03:06:23;100705.56;;;1.42
58102;BMP280;52034;51.926;6.320;2024-01-16T03:07:26;100706.13;;;1.40
58102;BMP280;52034;51.926;6.320;2024-01-16T03:08:27;100710.38;;;1.41
58102;BMP280;52034;51.926;6.320;2024-01-16T03:09:29;100709.63;;;1.41
58102;BMP280;52034;51.926;6.320;2024-01-16T03:10:30;100718.09;;;1.43
58102;BMP280;52034;51.926;6.320;2024-01-16T03:11:32;100717.34;;;1.42
58102;BMP280;52034;51.926;6.320;2024-01-16T03:12:34;100724.66;;;1.47
58102;BMP280;52034;51.926;6.320;2024-01-16T03:13:36;100729.75;;;1.51
58102;BMP280;52034;51.926;6.320;2024-01-16T03:14:38;100716.94;;;1.46
58102;BMP280;52034;51.926;6.320;2024-01-16T03:15:40;100715.78;;;1.49
58102;BMP280;52034;51.926;6.320;2024-01-16T03:16:42;100709.94;;;1.45
58102;BMP280;52034;51.926;6.320;2024-01-16T03:17:44;100716.81;;;1.53
58102;BMP280;52034;51.926;6.320;2024-01-16T03:18:45;100721.19;;;1.56
58102;BMP280;52034;51.926;6.320;2024-01-16T03:19:47;100709.41;;;1.56
58102;BMP280;52034;51.926;6.320;2024-01-16T03:20:49;100717.84;;;1.58
58102;BMP280;52034;51.926;6.320;2024-01-16T03:21:51;100712.75;;;1.54
58102;BMP280;52034;51.926;6.320;2024-01-16T03:22:52;100717.13;;;1.57
58102;BMP280;52034;51.926;6.320;2024-01-16T03:23:54;100715.41;;;1.62
58102;BMP280;52034;51.926;6.320;2024-01-16T03:24:56;100721.06;;;1.64
58102;BMP280;52034;51.926;6.320;2024-01-16T03:25:58;100712.03;;;1.63
58102;BMP280;52034;51.926;6.320;2024-01-16T03:26:59;100719.91;;;1.67
58102;BMP280;52034;51.926;6.320;2024-01-16T03:28:01;100710.28;;;1.68
58102;BMP280;52034;51.926;6.320;2024-01-16T03:29:03;100709.00;;;1.69
58102;BMP280;52034;51.926;6.320;2024-01-16T03:30:05;100707.22;;;1.64
58102;BMP280;52034;51.926;6.320;2024-01-16T03:31:08;100712.19;;;1.65
58102;BMP280;52034;51.926;6.320;2024-01-16T03:32:10;100715.97;;;1.70
58102;BMP280;52034;51.926;6.320;2024-01-16T03:33:11;100707.22;;;1.64
58102;BMP280;52034;51.926;6.320;2024-01-16T03:34:13;100698.63;;;1.60
58102;BMP280;52034;51.926;6.320;2024-01-16T03:35:15;100698.47;;;1.58
58102;BMP280;52034;51.926;6.320;2024-01-16T03:36:17;100700.38;;;1.65
58102;BMP280;52034;51.926;6.320;2024-01-16T03:37:19;100692.25;;;1.67
58102;BMP280;52034;51.926;6.320;2024-01-16T03:38:21;100700.69;;;1.69
58102;BMP280;52034;51.926;6.320;2024-01-16T03:39:23;100682.03;;;1.60
58102;BMP280;52034;51.926;6.320;2024-01-16T03:40:24;100682.31;;;1.64
58102;BMP280;52034;51.926;6.320;2024-01-16T03:41:26;100696.44;;;1.68
58102;BMP280;52034;51.926;6.320;2024-01-16T03:42:28;100700.13;;;1.70
58102;BMP280;52034;51.926;6.320;2024-01-16T03:43:30;100701.56;;;1.71
58102;BMP280;52034;51.926;6.320;2024-01-16T03:44:31;100684.09;;;1.69
58102;BMP280;52034;51.926;6.320;2024-01-16T03:45:33;100685.09;;;1.64
58102;BMP280;52034;51.926;6.320;2024-01-16T03:46:34;100687.84;;;1.64
58102;BMP280;52034;51.926;6.320;2024-01-16T03:47:36;100673.72;;;1.60
58102;BMP280;52034;51.926;6.320;2024-01-16T03:48:37;100677.94;;;1.61
58102;BMP280;52034;51.926;6.320;2024-01-16T03:49:39;100683.47;;;1.61
58102;BMP280;52034;51.926;6.320;2024-01-16T03:50:41;100683.94;;;1.67
58102;BMP280;52034;51.926;6.320;2024-01-16T03:51:45;100682.47;;;1.66
58102;BMP280;52034;51.926;6.320;2024-01-16T03:52:48;100678.81;;;1.63
58102;BMP280;52034;51.926;6.320;2024-01-16T03:53:49;100696.78;;;1.72
58102;BMP280;52034;51.926;6.320;2024-01-16T03:54:51;100702.31;;;1.72
58102;BMP280;52034;51.926;6.320;2024-01-16T03:55:52;100695.16;;;1.69
58102;BMP280;52034;51.926;6.320;2024-01-16T03:56:54;100685.97;;;1.66
58102;BMP280;52034;51.926;6.320;2024-01-16T03:57:57;100693.69;;;1.68
58102;BMP280;52034;51.926;6.320;2024-01-16T03:58:59;100699.53;;;1.72
58102;BMP280;52034;51.926;6.320;2024-01-16T04:00:00;100699.53;;;1.72
58102;BMP280;52034;51.926;6.320;2024-01-16T04:01:04;100703.31;;;1.76
58102;BMP280;52034;51.926;6.320;2024-01-16T04:02:06;100700.84;;;1.71
58102;BMP280;52034;51.926;6.320;2024-01-16T04:03:08;100695.88;;;1.69
58102;BMP280;52034;51.926;6.320;2024-01-16T04:04:10;100704.50;;;1.73
58102;BMP280;52034;51.926;6.320;2024-01-16T04:05:12;100705.94;;;1.74
58102;BMP280;52034;51.926;6.320;2024-01-16T04:06:17;100698.38;;;1.75
58102;BMP280;52034;51.926;6.320;2024-01-16T04:07:22;100709.13;;;1.71
58102;BMP280;52034;51.926;6.320;2024-01-16T04:08:24;100710.91;;;1.76
58102;BMP280;52034;51.926;6.320;2024-01-16T04:09:26;100701.72;;;1.73
58102;BMP280;52034;51.926;6.320;2024-01-16T04:10:28;100711.47;;;1.74
58102;BMP280;52034;51.926;6.320;2024-01-16T04:11:29;100701.16;;;1.75
58102;BMP280;52034;51.926;6.320;2024-01-16T04:12:31;100701.72;;;1.73
58102;BMP280;52034;51.926;6.320;2024-01-16T04:13:33;100694.84;;;1.65
58102;BMP280;52034;51.926;6.320;2024-01-16T04:14:34;100700.38;;;1.65
58102;BMP280;52034;51.926;6.320;2024-01-16T04:15:38;100691.38;;;1.64
58102;BMP280;52034;51.926;6.320;2024-01-16T04:16:40;100700.69;;;1.69
58102;BMP280;52034;51.926;6.320;2024-01-16T04:17:42;100701.41;;;1.69
58102;BMP280;52034;51.926;6.320;2024-01-16T04:18:44;100700.13;;;1.70
58102;BMP280;52034;51.926;6.320;2024-01-16T04:19:46;100691.94;;;1.63
58102;BMP280;52034;51.926;6.320;2024-01-16T04:20:47;100687.72;;;1.62
58102;BMP280;52034;51.926;6.320;2024-01-16T04:21:49;100687.72;;;1.62
58102;BMP280;52034;51.926;6.320;2024-01-16T04:22:51;100694.25;;;1.66
58102;BMP280;52034;51.926;6.320;2024-01-16T04:23:52;100683.78;;;1.65
58102;BMP280;52034;51.926;6.320;2024-01-16T04:24:54;100681.75;;;1.56
58102;BMP280;52034;51.926;6.320;2024-01-16T04:25:55;100689.19;;;1.63
58102;BMP280;52034;51.926;6.320;2024-01-16T04:26:57;100690.63;;;1.64
58102;BMP280;52034;51.926;6.320;2024-01-16T04:27:59;100691.22;;;1.62
58102;BMP280;52034;51.926;6.320;2024-01-16T04:29:04;100681.75;;;1.56
58102;BMP280;52034;51.926;6.320;2024-01-16T04:30:07;100696.16;;;1.64
58102;BMP280;52034;51.926;6.320;2024-01-16T04:31:09;100697.63;;;1.65
58102;BMP280;52034;51.926;6.320;2024-01-16T04:32:13;100688.72;;;1.66
58102;BMP280;52034;51.926;6.320;2024-01-16T04:33:15;100699.53;;;1.72
58102;BMP280;52034;51.926;6.320;2024-01-16T04:34:17;100696.63;;;1.70
58102;BMP280;52034;51.926;6.320;2024-01-16T04:35:18;100699.53;;;1.72
58102;BMP280;52034;51.926;6.320;2024-01-16T04:36:20;100692.06;;;1.65
58102;BMP280;52034;51.926;6.320;2024-01-16T04:37:21;100686.13;;;1.68
58102;BMP280;52034;51.926;6.320;2024-01-16T04:38:23;100698.06;;;1.71
58102;BMP280;52034;51.926;6.320;2024-01-16T04:39:25;100698.34;;;1.65
58102;BMP280;52034;51.926;6.320;2024-01-16T04:40:26;100694.84;;;1.65
58102;BMP280;52034;51.926;6.320;2024-01-16T04:41:28;100690.03;;;1.65
58102;BMP280;52034;51.926;6.320;2024-01-16T04:42:29;100705.78;;;1.63
58102;BMP280;52034;51.926;6.320;2024-01-16T04:43:31;100695.28;;;1.61
58102;BMP280;52034;51.926;6.320;2024-01-16T04:44:32;100703.72;;;1.63
58102;BMP280;52034;51.926;6.320;2024-01-16T04:45:34;100697.63;;;1.65
58102;BMP280;52034;51.926;6.320;2024-01-16T04:46:36;100693.84;;;1.60
58102;BMP280;52034;51.926;6.320;2024-01-16T04:47:37;100691.06;;;1.60
58102;BMP280;52034;51.926;6.320;2024-01-16T04:48:39;100700.94;;;1.63
58102;BMP280;52034;51.926;6.320;2024-01-16T04:49:42;100698.34;;;1.65
58102;BMP280;52034;51.926;6.320;2024-01-16T04:50:43;100704.91;;;1.60
58102;BMP280;52034;51.926;6.320;2024-01-16T04:51:46;100692.66;;;1.63
58102;BMP280;52034;51.926;6.320;2024-01-16T04:52:48;100697.03;;;1.66
58102;BMP280;52034;51.926;6.320;2024-01-16T04:53:54;100702.16;;;1.70
58102;BMP280;52034;51.926;6.320;2024-01-16T04:54:56;100703.03;;;1.72
58102;BMP280;52034;51.926;6.320;2024-01-16T04:55:58;100706.38;;;1.71
58102;BMP280;52034;51.926;6.320;2024-01-16T04:56:59;100701.00;;;1.73
58102;BMP280;52034;51.926;6.320;2024-01-16T04:58:01;100702.31;;;1.72
58102;BMP280;52034;51.926;6.320;2024-01-16T04:59:03;100697.78;;;1.67
58102;BMP280;52034;51.926;6.320;2024-01-16T05:00:05;100702.16;;;1.70
58102;BMP280;52034;51.926;6.320;2024-01-16T05:01:08;100707.97;;;1.74
58102;BMP280;52034;51.926;6.320;2024-01-16T05:02:10;100716.44;;;1.76
58102;BMP280;52034;51.926;6.320;2024-01-16T05:03:12;100710.91;;;1.76
58102;BMP280;52034;51.926;6.320;2024-01-16T05:04:13;100707.97;;;1.74
58102;BMP280;52034;51.926;6.320;2024-01-16T05:05:15;100700.84;;;1.71
58102;BMP280;52034;51.926;6.320;2024-01-16T05:06:17;100709.28;;;1.73
58102;BMP280;52034;51.926;6.320;2024-01-16T05:07:19;100711.63;;;1.76
58102;BMP280;52034;51.926;6.320;2024-01-16T05:08:23;100710.75;;;1.74
58102;BMP280;52034;51.926;6.320;2024-01-16T05:09:25;100703.91;;;1.75
58102;BMP280;52034;51.926;6.320;2024-01-16T05:10:27;100713.81;;;1.78
58102;BMP280;52034;51.926;6.320;2024-01-16T05:11:29;100709.47;;;1.75
58102;BMP280;52034;51.926;6.320;2024-01-16T05:12:30;100704.34;;;1.71
58102;BMP280;52034;51.926;6.320;2024-01-16T05:13:32;100706.69;;;1.75
58102;BMP280;52034;51.926;6.320;2024-01-16T05:14:33;100712.78;;;1.73
58102;BMP280;52034;51.926;6.320;2024-01-16T05:15:35;100702.72;;;1.68
58102;BMP280;52034;51.926;6.320;2024-01-16T05:16:37;100706.69;;;1.75
58102;BMP280;52034;51.926;6.320;2024-01-16T05:17:39;100707.97;;;1.74
58102;BMP280;52034;51.926;6.320;2024-01-16T05:18:43;100702.16;;;1.70
58102;BMP280;52034;51.926;6.320;2024-01-16T05:19:46;100695.00;;;1.67
58102;BMP280;52034;51.926;6.320;2024-01-16T05:20:47;100706.53;;;1.73
58102;BMP280;52034;51.926;6.320;2024-01-16T05:21:49;100702.72;;;1.78
58102;BMP280;52034;51.926;6.320;2024-01-16T05:22:51;100707.09;;;1.81
58102;BMP280;52034;51.926;6.320;2024-01-16T05:23:53;100695.91;;;1.79
58102;BMP280;52034;51.926;6.320;2024-01-16T05:24:54;100692.69;;;1.73
58102;BMP280;52034;51.926;6.320;2024-01-16T05:25:56;100689.19;;;1.72
58102;BMP280;52034;51.926;6.320;2024-01-16T05:26:58;100685.38;;;1.68
58102;BMP280;52034;51.926;6.320;2024-01-16T05:28:00;100694.72;;;1.72
58102;BMP280;52034;51.926;6.320;2024-01-16T05:29:02;100685.13;;;1.73
58102;BMP280;52034;51.926;6.320;2024-01-16T05:30:04;100690.22;;;1.77
58102;BMP280;52034;51.926;6.320;2024-01-16T05:31:06;100695.91;;;1.79
58102;BMP280;52034;51.926;6.320;2024-01-16T05:32:09;100690.22;;;1.77
58102;BMP280;52034;51.926;6.320;2024-01-16T05:33:10;100686.13;;;1.78
58102;BMP280;52034;51.926;6.320;2024-01-16T05:34:12;100678.13;;;1.72
58102;BMP280;52034;51.926;6.320;2024-01-16T05:35:14;100682.50;;;1.75
58102;BMP280;52034;51.926;6.320;2024-01-16T05:36:16;100682.66;;;1.77
58102;BMP280;52034;51.926;6.320;2024-01-16T05:37:19;100682.66;;;1.77
58102;BMP280;52034;51.926;6.320;2024-01-16T05:38:20;100675.06;;;1.78
58102;BMP280;52034;51.926;6.320;2024-01-16T05:39:22;100683.94;;;1.76
58102;BMP280;52034;51.926;6.320;2024-01-16T05:40:23;100671.56;;;1.68
58102;BMP280;52034;51.926;6.320;2024-01-16T05:41:26;100678.13;;;1.72
58102;BMP280;52034;51.926;6.320;2024-01-16T05:42:28;100667.50;;;1.69
58102;BMP280;52034;51.926;6.320;2024-01-16T05:43:30;100678.84;;;1.73
58102;BMP280;52034;51.926;6.320;2024-01-16T05:44:32;100668.78;;;1.68
58102;BMP280;52034;51.926;6.320;2024-01-16T05:45:33;100677.66;;;1.66
58102;BMP280;52034;51.926;6.320;2024-01-16T05:46:35;100662.50;;;1.58
58102;BMP280;52034;51.926;6.320;2024-01-16T05:47:37;100669.94;;;1.65
58102;BMP280;52034;51.926;6.320;2024-01-16T05:48:39;100671.25;;;1.64
58102;BMP280;52034;51.926;6.320;2024-01-16T05:49:41;100663.53;;;1.62
58102;BMP280;52034;51.926;6.320;2024-01-16T05:50:44;100672.72;;;1.65
58102;BMP280;52034;51.926;6.320;2024-01-16T05:51:46;100669.34;;;1.66
58102;BMP280;52034;51.926;6.320;2024-01-16T05:52:47;100654.38;;;1.60
58102;BMP280;52034;51.926;6.320;2024-01-16T05:53:51;100657.88;;;1.70
58102;BMP280;52034;51.926;6.320;2024-01-16T05:54:53;100656.84;;;1.65
58102;BMP280;52034;51.926;6.320;2024-01-16T05:55:58;100657.28;;;1.62
58102;BMP280;52034;51.926;6.320;2024-01-16T05:57:01;100662.66;;;1.69
58102;BMP280;52034;51.926;6.320;2024-01-16T05:58:05;100664.16;;;1.70